createdAt,value
2022-10-05T00:05:56.423Z,981.77
2022-10-05T00:13:54.445Z,981.75
2022-10-05T00:21:40.766Z,981.59
2022-10-05T00:29:24.959Z,981.55
2022-10-05T00:37:05.636Z,981.64
2022-10-05T00:45:09.958Z,981.6
2022-10-05T00:53:16.992Z,981.59
2022-10-05T01:01:32.229Z,981.7
2022-10-05T01:09:30.691Z,981.71
2022-10-05T01:17:48.049Z,981.68
2022-10-05T01:25:57.872Z,981.7
2022-10-05T01:34:12.570Z,981.62
2022-10-05T01:42:40.382Z,981.38
2022-10-05T01:50:40.947Z,981.2
2022-10-05T01:58:56.396Z,981.04
2022-10-05T02:07:14.085Z,981.05
2022-10-05T02:15:24.423Z,980.99
2022-10-05T02:23:40.830Z,980.9
2022-10-05T02:31:54.240Z,980.78
2022-10-05T02:40:19.052Z,980.76
2022-10-05T02:48:21.918Z,980.79
2022-10-05T02:56:51.719Z,980.84
2022-10-05T03:05:33.071Z,981.02
2022-10-05T03:13:58.036Z,980.92
2022-10-05T03:22:21.767Z,980.89
2022-10-05T03:30:44.593Z,980.82
2022-10-05T03:39:11.162Z,980.81
2022-10-05T03:47:30.944Z,980.8
2022-10-05T03:55:58.337Z,980.75
2022-10-05T04:04:25.049Z,980.77
2022-10-05T04:12:40.505Z,980.72
2022-10-05T04:21:00.667Z,980.7
2022-10-05T04:29:27.756Z,980.61
2022-10-05T04:37:47.918Z,980.67
2022-10-05T04:46:03.389Z,980.69
2022-10-05T04:54:22.184Z,980.67
2022-10-05T05:02:47.005Z,980.71
2022-10-05T05:11:24.363Z,980.75
2022-10-05T05:19:43.753Z,980.67
2022-10-05T05:28:10.918Z,980.71
2022-10-05T05:36:27.371Z,980.74
2022-10-05T05:44:40.643Z,980.83
2022-10-05T05:53:02.412Z,980.87
2022-10-05T06:01:34.195Z,980.87
2022-10-05T06:09:51.776Z,980.89
2022-10-05T06:18:30.376Z,980.96
2022-10-05T06:26:36.523Z,981.06
2022-10-05T06:34:58.822Z,981.08
2022-10-05T06:43:17.472Z,981.04
2022-10-05T06:51:32.887Z,981.13
2022-10-05T07:00:03.326Z,981.16
2022-10-05T07:08:23.906Z,981.23
2022-10-05T07:16:55.418Z,981.2
2022-10-05T07:25:24.699Z,981.18
2022-10-05T07:33:43.820Z,981.19
2022-10-05T07:42:02.573Z,981.24
2022-10-05T07:50:22.717Z,981.21
2022-10-05T07:58:57.402Z,981.37
2022-10-05T08:07:15.999Z,981.37
2022-10-05T08:15:29.150Z,981.25
2022-10-05T08:23:51.263Z,981.3
2022-10-05T08:32:14.570Z,981.29
2022-10-05T08:40:35.835Z,981.2
2022-10-05T08:48:56.340Z,981.29
2022-10-05T08:57:05.592Z,981.31
2022-10-05T09:05:27.343Z,981.31
2022-10-05T09:13:42.271Z,981.26
2022-10-05T09:21:53.476Z,981.33
2022-10-05T09:30:15.875Z,981.35
2022-10-05T09:38:26.139Z,981.25
2022-10-05T09:46:50.688Z,981.27
2022-10-05T09:55:12.091Z,981.27
2022-10-05T10:03:30.159Z,981.26
2022-10-05T10:11:31.278Z,981.25
2022-10-05T10:20:02.607Z,981.2
2022-10-05T10:28:35.176Z,981.22
2022-10-05T10:36:40.224Z,981.17
2022-10-05T10:45:01.987Z,981.04
2022-10-05T10:53:14.058Z,981.02
2022-10-05T11:01:19.118Z,980.93
2022-10-05T11:09:20.051Z,980.92
2022-10-05T11:17:22.036Z,980.99
2022-10-05T11:25:50.646Z,980.97
2022-10-05T11:34:19.547Z,980.96
2022-10-05T11:42:42.252Z,980.91
2022-10-05T11:50:59.945Z,980.82
2022-10-05T11:59:32.503Z,980.71
2022-10-05T12:08:03.946Z,980.66
2022-10-05T12:16:24.403Z,980.65
2022-10-05T12:24:41.166Z,980.64
2022-10-05T12:33:02.863Z,980.52
2022-10-05T12:41:04.071Z,980.42
2022-10-05T12:49:24.881Z,980.25
2022-10-05T12:57:45.277Z,980.1
2022-10-05T13:05:43.970Z,980.03
2022-10-05T13:13:26.557Z,979.99
2022-10-05T13:21:33.608Z,979.93
2022-10-05T13:29:59.977Z,979.86
2022-10-05T13:38:21.657Z,979.82
2022-10-05T13:46:41.407Z,979.78
2022-10-05T13:54:58.553Z,979.69
2022-10-05T14:03:07.135Z,979.64
2022-10-05T14:11:34.205Z,979.45
2022-10-05T14:19:56.985Z,979.35
2022-10-05T14:27:59.732Z,979.26
2022-10-05T14:35:59.427Z,979.18
2022-10-05T14:44:09.731Z,979.13
2022-10-05T14:52:21.365Z,979.08
2022-10-05T15:00:29.680Z,979.03
2022-10-05T15:08:52.058Z,978.96
2022-10-05T15:17:06.386Z,978.98
2022-10-05T15:25:30.863Z,979
2022-10-05T15:33:27.388Z,979.06
2022-10-05T15:41:43.382Z,979.09
2022-10-05T15:49:55.393Z,979.13
2022-10-05T15:58:09.913Z,979.2
2022-10-05T16:06:09.322Z,979.14
2022-10-05T16:14:06.506Z,979.19
2022-10-05T16:22:02.341Z,979.27
2022-10-05T16:30:32.114Z,979.34
2022-10-05T16:38:53.949Z,979.49
2022-10-05T16:47:02.395Z,979.58
2022-10-05T16:55:19.504Z,979.72
2022-10-05T17:03:33.112Z,979.85
2022-10-05T17:11:49.366Z,979.84
2022-10-05T17:19:52.089Z,979.95
2022-10-05T17:28:03.093Z,980.03
2022-10-05T17:36:02.404Z,980.16
2022-10-05T17:44:17.285Z,980.28
2022-10-05T17:52:30.509Z,980.4
2022-10-05T18:00:43.581Z,980.44
2022-10-05T18:08:59.623Z,980.62
2022-10-05T18:16:55.350Z,980.71
2022-10-05T18:24:59.091Z,980.8
2022-10-05T18:33:14.731Z,980.92
2022-10-05T18:41:25.177Z,980.96
2022-10-05T18:49:41.517Z,981
2022-10-05T18:58:01.711Z,981.07
2022-10-05T19:06:35.144Z,981.25
2022-10-05T19:14:47.185Z,981.37
2022-10-05T19:22:52.651Z,981.46
2022-10-05T19:31:00.732Z,981.7
2022-10-05T19:39:20.197Z,981.85
2022-10-05T19:47:26.734Z,981.97
2022-10-05T19:55:53.462Z,982.12
2022-10-05T20:03:57.604Z,982.35
2022-10-05T20:12:00.707Z,982.4
2022-10-05T20:20:09.942Z,982.61
2022-10-05T20:28:16.661Z,982.64
2022-10-05T20:35:58.554Z,982.72
2022-10-05T20:43:41.444Z,982.79
2022-10-05T20:51:13.484Z,982.77
2022-10-05T20:58:51.816Z,982.85
2022-10-05T21:06:18.108Z,982.92
2022-10-05T21:13:59.154Z,982.98
2022-10-05T21:21:35.411Z,982.97
2022-10-05T21:29:15.524Z,983.05
2022-10-05T21:36:47.813Z,983.05
2022-10-05T21:44:21.364Z,983.2
2022-10-05T21:52:04.221Z,983.39
2022-10-05T21:59:54.597Z,983.47
2022-10-05T22:07:43.662Z,983.45
2022-10-05T22:15:34.654Z,983.57
2022-10-05T22:23:33.437Z,983.55
2022-10-05T22:31:30.316Z,983.53
2022-10-05T22:38:56.855Z,983.61
2022-10-05T22:46:38.148Z,983.72
2022-10-05T22:54:18.380Z,983.87
2022-10-05T23:01:56.338Z,983.8
2022-10-05T23:09:43.452Z,983.73
2022-10-05T23:17:43.471Z,983.79
2022-10-05T23:25:14.980Z,984
2022-10-05T23:33:05.395Z,983.9
2022-10-05T23:41:01.473Z,983.84
2022-10-05T23:48:41.121Z,984.04
2022-10-05T23:56:18.046Z,984.21
